Time;durP1;ratioP1;P1;durP2;ratioP2;P2;SDS_P1;SDS_P2;PMS_P1;PMS_P2;Temp;Humidity;BMP_temperature;BMP_pressure;BME280_temperature;BME280_humidity;BME280_pressure;Samples;Min_cycle;Max_cycle;Signal;HPM_P1;HPM_P2
2022/02/01 00:00:39;;;;;;;30.23;11.67;;;2.30;93.20;;;;;;4997425;28;20272;-91
2022/02/01 00:03:05;;;;;;;26.03;11.60;;;2.30;93.20;;;;;;4979982;28;20177;-90
2022/02/01 00:05:40;;;;;;;22.13;11.07;;;2.30;93.20;;;;;;4979130;28;20191;-90
2022/02/01 00:08:29;;;;;;;24.70;10.83;;;2.30;93.20;;;;;;4996343;28;20176;-91
2022/02/01 00:11:20;;;;;;;20.10;10.83;;;2.40;93.20;;;;;;4978920;28;20200;-91
2022/02/01 00:16:40;;;;;;;25.07;11.47;;;2.40;93.20;;;;;;4996099;28;20194;-90
2022/02/01 00:35:47;;;;;;;21.73;6.80;;;2.80;93.20;;;;;;4977365;28;20205;-91
2022/02/01 00:38:20;;;;;;;18.10;5.33;;;2.80;93.10;;;;;;4978301;28;20229;-91
2022/02/01 00:40:54;;;;;;;10.07;4.23;;;2.80;93.00;;;;;;4978673;28;20194;-91
2022/02/01 00:43:21;;;;;;;21.87;5.43;;;2.90;92.80;;;;;;4978600;28;20174;-91
2022/02/01 00:45:47;;;;;;;20.70;4.90;;;2.80;92.80;;;;;;4979006;28;20635;-91
2022/02/01 00:48:12;;;;;;;15.00;3.53;;;2.80;92.70;;;;;;4978799;28;20187;-91
2022/02/01 00:50:38;;;;;;;13.17;3.03;;;2.80;92.60;;;;;;4978810;28;20194;-92
2022/02/01 00:53:04;;;;;;;11.87;2.57;;;2.90;92.50;;;;;;4978835;28;20682;-92
2022/02/01 00:55:31;;;;;;;6.43;2.53;;;2.90;92.30;;;;;;4978344;28;20771;-92
2022/02/01 00:57:56;;;;;;;17.97;4.00;;;2.90;92.10;;;;;;4978944;28;20177;-92
2022/02/01 01:00:22;;;;;;;20.60;3.40;;;3.00;92.10;;;;;;4979080;28;20225;-92
2022/02/01 01:02:48;;;;;;;14.67;2.93;;;3.00;92.00;;;;;;4978916;28;20553;-92
2022/02/01 01:05:13;;;;;;;17.50;2.90;;;3.00;92.00;;;;;;4979188;28;20184;-91
2022/02/01 01:07:39;;;;;;;28.73;4.67;;;3.10;91.70;;;;;;4979313;28;20189;-92
2022/02/01 01:10:10;;;;;;;21.10;4.33;;;3.10;91.40;;;;;;4979173;28;20198;-92
2022/02/01 01:12:45;;;;;;;21.53;3.83;;;3.10;91.00;;;;;;4979749;28;20179;-92
2022/02/01 01:15:25;;;;;;;14.47;3.57;;;3.10;90.80;;;;;;4996603;28;20217;-92
2022/02/01 01:18:34;;;;;;;25.07;4.67;;;3.10;90.70;;;;;;4980905;28;20200;-92
2022/02/01 01:45:23;;;;;;;23.97;5.63;;;3.00;90.70;;;;;;4998885;28;20182;-92
2022/02/01 01:53:20;;;;;;;19.40;3.30;;;2.80;91.10;;;;;;4997260;28;20169;-92
2022/02/01 01:55:52;;;;;;;19.63;3.80;;;2.80;91.20;;;;;;4980477;28;20237;-92
2022/02/01 01:58:20;;;;;;;15.77;4.07;;;2.70;91.40;;;;;;4981061;28;20181;-92
2022/02/01 02:03:26;;;;;;;12.37;3.33;;;2.60;91.70;;;;;;4997856;28;20164;-91
2022/02/01 02:05:52;;;;;;;24.87;4.13;;;2.60;91.80;;;;;;4980366;28;20177;-91
2022/02/01 02:08:21;;;;;;;21.30;4.03;;;2.60;91.80;;;;;;4981236;28;20180;-92
2022/02/01 02:11:07;;;;;;;22.13;3.70;;;2.60;91.80;;;;;;4981531;28;20200;-91
2022/02/01 02:16:23;;;;;;;26.53;4.10;;;2.60;91.60;;;;;;4998018;28;20232;-92
2022/02/01 02:18:49;;;;;;;31.83;6.07;;;2.70;91.70;;;;;;4981134;28;20547;-92
2022/02/01 02:21:17;;;;;;;29.53;4.30;;;2.70;91.80;;;;;;4981110;28;20208;-92
2022/02/01 02:23:43;;;;;;;28.33;4.13;;;2.70;91.80;;;;;;4980412;28;20208;-92
2022/02/01 02:26:14;;;;;;;23.33;5.43;;;2.80;91.80;;;;;;4997583;28;20177;-92
2022/02/01 02:28:40;;;;;;;28.80;3.87;;;2.80;91.80;;;;;;4981442;28;20181;-92
2022/02/01 02:31:07;;;;;;;24.17;4.57;;;2.80;91.60;;;;;;4980367;28;20369;-92
2022/02/01 02:33:33;;;;;;;24.17;4.70;;;2.80;91.50;;;;;;4980784;28;20181;-91
2022/02/01 02:36:06;;;;;;;21.00;3.47;;;2.80;91.40;;;;;;4995791;28;20223;-92
2022/02/01 02:38:44;;;;;;;21.97;4.93;;;2.90;91.40;;;;;;4998585;28;20157;-92
2022/02/01 02:41:30;;;;;;;22.40;4.47;;;2.90;91.40;;;;;;4983182;28;20201;-92
2022/02/01 02:46:49;;;;;;;24.93;4.27;;;2.80;91.30;;;;;;5000437;28;20217;-91
2022/02/01 02:49:18;;;;;;;22.07;4.33;;;2.90;90.70;;;;;;4982744;28;20178;-91
2022/02/01 02:51:47;;;;;;;30.03;4.30;;;2.90;90.10;;;;;;4981291;28;20296;-92
2022/02/01 02:54:18;;;;;;;16.00;3.90;;;2.90;89.90;;;;;;4981480;28;20177;-92
2022/02/01 02:56:48;;;;;;;41.87;4.87;;;2.90;89.90;;;;;;4980931;28;20198;-91
2022/02/01 02:59:17;;;;;;;31.23;4.00;;;2.90;89.70;;;;;;4981015;28;20666;-92
2022/02/01 03:01:48;;;;;;;26.33;4.83;;;2.90;89.30;;;;;;4983994;28;20213;-92
2022/02/01 03:04:19;;;;;;;20.67;4.47;;;3.00;89.10;;;;;;4984711;28;20169;-92
2022/02/01 03:06:48;;;;;;;20.10;4.77;;;2.90;89.20;;;;;;4984311;28;20262;-92
2022/02/01 03:09:15;;;;;;;28.17;4.20;;;2.90;89.30;;;;;;4986138;28;20205;-91
2022/02/01 03:11:44;;;;;;;27.77;5.00;;;2.80;89.70;;;;;;4985538;28;20205;-92
2022/02/01 03:14:40;;;;;;;24.53;4.70;;;2.80;89.90;;;;;;4985715;28;20173;-92
2022/02/01 03:17:18;;;;;;;27.37;5.00;;;2.80;89.90;;;;;;5001664;28;20219;-91
2022/02/01 03:19:50;;;;;;;18.57;4.33;;;2.80;89.70;;;;;;5002794;28;20628;-91
2022/02/01 03:22:17;;;;;;;21.67;4.03;;;2.70;89.70;;;;;;4984573;28;20174;-92
2022/02/01 03:24:48;;;;;;;20.03;4.77;;;2.60;89.70;;;;;;5001341;28;20178;-92
2022/02/01 03:27:14;;;;;;;21.53;4.37;;;2.70;89.50;;;;;;4985875;28;20170;-92
2022/02/01 03:29:40;;;;;;;23.60;4.77;;;2.60;89.60;;;;;;4985090;28;20181;-91
2022/02/01 03:32:12;;;;;;;24.67;4.53;;;2.60;89.60;;;;;;5000618;28;20213;-91
2022/02/01 03:34:38;;;;;;;23.33;4.40;;;2.60;89.60;;;;;;4984519;28;20266;-91
2022/02/01 03:37:04;;;;;;;25.57;4.97;;;2.60;89.50;;;;;;4984718;28;20214;-91
2022/02/01 03:39:39;;;;;;;21.57;4.80;;;2.60;89.40;;;;;;5001831;28;20179;-92
2022/02/01 03:42:05;;;;;;;27.90;4.50;;;2.60;89.20;;;;;;4984694;28;20242;-92
2022/02/01 03:44:34;;;;;;;28.30;4.77;;;2.60;89.10;;;;;;4983391;28;20216;-91
2022/02/01 03:47:03;;;;;;;27.60;4.80;;;2.60;89.10;;;;;;5000607;28;20174;-92
2022/02/01 03:49:34;;;;;;;19.03;3.70;;;2.60;89.00;;;;;;4983664;28;20196;-91
2022/02/01 03:52:01;;;;;;;20.90;3.80;;;2.70;89.00;;;;;;4984623;28;20601;-91
2022/02/01 03:54:31;;;;;;;19.97;4.23;;;2.60;88.90;;;;;;4984205;28;20199;-92
2022/02/01 03:57:00;;;;;;;22.00;4.07;;;2.70;89.00;;;;;;4984440;28;20686;-92
2022/02/01 03:59:26;;;;;;;27.20;4.57;;;2.70;89.20;;;;;;4987321;28;20184;-92
2022/02/01 04:01:57;;;;;;;20.67;3.77;;;2.80;89.30;;;;;;5003000;28;20196;-92
2022/02/01 04:04:25;;;;;;;17.57;3.30;;;2.80;89.20;;;;;;5005645;28;20162;-92
2022/02/01 04:06:58;;;;;;;32.77;4.60;;;2.80;89.40;;;;;;4986316;28;20192;-92
2022/02/01 04:09:26;;;;;;;24.90;5.03;;;2.80;89.60;;;;;;5003259;28;20165;-92
2022/02/01 04:11:56;;;;;;;21.23;4.27;;;2.80;89.60;;;;;;4985039;28;20230;-92
2022/02/01 04:14:26;;;;;;;27.83;5.80;;;2.80;89.70;;;;;;4985532;28;20162;-92
2022/02/01 04:17:00;;;;;;;18.83;4.13;;;2.80;89.80;;;;;;4985542;28;20228;-92
2022/02/01 04:19:28;;;;;;;22.20;4.33;;;2.80;89.80;;;;;;4985145;28;20173;-92
2022/02/01 04:24:25;;;;;;;27.73;3.80;;;2.90;90.00;;;;;;5003065;28;20223;-93
2022/02/01 04:26:51;;;;;;;25.00;5.23;;;2.90;90.20;;;;;;4987990;28;20195;-92
2022/02/01 04:29:19;;;;;;;27.90;4.13;;;3.00;90.10;;;;;;4986389;28;20185;-92
2022/02/01 04:31:45;;;;;;;20.73;5.00;;;3.00;90.10;;;;;;5005804;28;20267;-91
2022/02/01 04:34:11;;;;;;;21.30;4.37;;;3.00;90.00;;;;;;4988330;28;20190;-92
2022/02/01 04:36:37;;;;;;;16.67;3.67;;;3.10;89.80;;;;;;4987016;28;20209;-92
2022/02/01 04:39:06;;;;;;;16.77;3.13;;;3.10;89.50;;;;;;4985747;28;20177;-92
2022/02/01 04:41:31;;;;;;;12.53;3.27;;;3.10;89.50;;;;;;5006789;28;20574;-91
2022/02/01 04:43:59;;;;;;;12.47;3.60;;;3.10;89.50;;;;;;5002887;28;20208;-92
2022/02/01 04:46:27;;;;;;;15.83;3.43;;;3.10;89.60;;;;;;4985225;28;20268;-92
2022/02/01 04:48:59;;;;;;;27.87;3.93;;;3.10;89.40;;;;;;5002566;28;20200;-92
2022/02/01 04:51:28;;;;;;;18.10;3.63;;;3.20;89.50;;;;;;4986269;28;20202;-92
2022/02/01 04:53:54;;;;;;;23.90;3.50;;;3.10;89.50;;;;;;5003379;28;20188;-91
2022/02/01 04:56:26;;;;;;;28.47;3.77;;;3.10;89.60;;;;;;4987285;28;20210;-92
2022/02/01 04:58:52;;;;;;;16.13;3.23;;;3.00;89.60;;;;;;5004208;28;20155;-92
2022/02/01 05:01:23;;;;;;;22.17;4.70;;;2.90;89.80;;;;;;4986652;28;20205;-92
2022/02/01 05:03:50;;;;;;;18.50;3.50;;;3.00;89.90;;;;;;5002479;28;20159;-92
2022/02/01 05:06:18;;;;;;;20.57;3.40;;;3.00;90.10;;;;;;5001825;28;20173;-91
2022/02/01 05:08:44;;;;;;;17.73;4.00;;;3.00;90.20;;;;;;5001986;28;20204;-92
2022/02/01 05:11:09;;;;;;;13.73;3.20;;;3.00;90.20;;;;;;4984843;28;20680;-91
2022/02/01 05:16:23;;;;;;;19.40;4.03;;;3.00;90.20;;;;;;5002400;28;20219;-92
2022/02/01 05:19:00;;;;;;;13.43;3.40;;;3.10;90.20;;;;;;4984332;28;20199;-91
2022/02/01 05:21:31;;;;;;;15.50;3.47;;;3.10;90.30;;;;;;4986461;28;20248;-92
2022/02/01 05:23:57;;;;;;;18.70;3.77;;;3.00;90.20;;;;;;4986093;28;20166;-92
2022/02/01 05:26:24;;;;;;;19.53;4.30;;;3.10;90.10;;;;;;4989620;28;20187;-92
2022/02/01 05:28:51;;;;;;;18.53;3.83;;;3.00;90.10;;;;;;4988076;28;20190;-92
2022/02/01 05:31:17;;;;;;;26.83;4.23;;;3.00;90.20;;;;;;4988134;28;20726;-92
2022/02/01 05:33:43;;;;;;;19.97;4.00;;;3.00;90.30;;;;;;4988753;28;20248;-92
2022/02/01 05:36:09;;;;;;;20.97;4.27;;;3.00;90.40;;;;;;4990754;28;20205;-91
2022/02/01 05:38:38;;;;;;;27.50;4.33;;;3.10;90.40;;;;;;4989057;28;20179;-92
2022/02/01 05:41:05;;;;;;;17.40;3.13;;;3.10;90.50;;;;;;5007480;28;20679;-92
2022/02/01 05:43:30;;;;;;;23.30;4.13;;;3.10;90.50;;;;;;4991531;28;20178;-92
2022/02/01 05:45:58;;;;;;;24.80;3.60;;;3.20;90.60;;;;;;4991245;28;20186;-92
2022/02/01 05:48:25;;;;;;;24.07;4.20;;;3.20;90.60;;;;;;4990201;28;20189;-92
2022/02/01 05:50:54;;;;;;;18.33;3.93;;;3.20;90.60;;;;;;5008594;28;20190;-92
2022/02/01 05:53:23;;;;;;;22.73;4.50;;;3.20;90.60;;;;;;4991360;28;20181;-92
2022/02/01 05:55:50;;;;;;;21.90;3.87;;;3.20;90.60;;;;;;4990909;28;20216;-91
2022/02/01 05:58:16;;;;;;;23.80;4.80;;;3.20;90.60;;;;;;5009757;28;20201;-91
2022/02/01 06:00:42;;;;;;;26.87;5.30;;;3.20;90.70;;;;;;4992637;28;20201;-91
2022/02/01 06:03:08;;;;;;;18.13;3.77;;;3.30;90.80;;;;;;4992232;28;20166;-92
2022/02/01 06:05:37;;;;;;;20.20;4.43;;;3.20;90.90;;;;;;4992825;28;20192;-91
2022/02/01 06:08:06;;;;;;;20.17;3.27;;;3.30;90.80;;;;;;4995982;28;20244;-92
2022/02/01 06:10:32;;;;;;;13.27;3.30;;;3.30;90.70;;;;;;4993438;28;20202;-92
2022/02/01 06:12:58;;;;;;;21.17;3.77;;;3.30;90.70;;;;;;4995736;28;20193;-92
2022/02/01 06:15:28;;;;;;;17.13;3.37;;;3.30;90.70;;;;;;4989533;28;20255;-92
2022/02/01 06:17:57;;;;;;;20.50;3.57;;;3.30;90.40;;;;;;4991365;28;20266;-91
2022/02/01 06:20:24;;;;;;;18.63;3.63;;;3.30;90.20;;;;;;4995601;28;20205;-92
2022/02/01 06:22:49;;;;;;;12.30;3.00;;;3.30;90.40;;;;;;4995074;28;20209;-91
2022/02/01 06:25:18;;;;;;;16.27;3.70;;;3.30;90.40;;;;;;4994714;28;20192;-92
2022/02/01 06:27:44;;;;;;;16.90;3.03;;;3.30;90.40;;;;;;5012243;28;20176;-91
2022/02/01 06:30:10;;;;;;;14.23;3.00;;;3.20;90.50;;;;;;5011797;28;20261;-92
2022/02/01 06:32:38;;;;;;;12.53;3.80;;;3.20;90.40;;;;;;5010133;28;20621;-91
2022/02/01 06:35:13;;;;;;;18.33;2.83;;;3.20;90.50;;;;;;4992350;28;20206;-92
2022/02/01 06:37:38;;;;;;;22.87;4.20;;;3.20;90.40;;;;;;4995697;28;20167;-92
2022/02/01 06:40:04;;;;;;;15.77;3.43;;;3.20;90.40;;;;;;5010824;28;20194;-91
2022/02/01 06:42:31;;;;;;;19.13;3.53;;;3.20;90.40;;;;;;4986423;28;20181;-89
2022/02/01 06:44:57;;;;;;;13.63;3.93;;;3.20;90.20;;;;;;4991735;28;20182;-92
2022/02/01 06:47:30;;;;;;;19.10;3.80;;;3.20;90.20;;;;;;4994432;28;20212;-92
2022/02/01 06:49:55;;;;;;;19.93;3.30;;;3.20;90.30;;;;;;4994636;28;20173;-92
2022/02/01 06:52:21;;;;;;;18.63;2.73;;;3.20;90.20;;;;;;4997563;28;20217;-92
2022/02/01 06:54:47;;;;;;;13.03;2.93;;;3.10;90.50;;;;;;4993074;28;20183;-91
2022/02/01 06:57:15;;;;;;;13.87;2.97;;;3.20;90.50;;;;;;4993776;28;20202;-92
2022/02/01 06:59:41;;;;;;;18.03;4.03;;;3.20;90.60;;;;;;4994193;28;20193;-91
2022/02/01 07:02:09;;;;;;;7.53;3.23;;;3.10;90.60;;;;;;5011087;28;20211;-91
2022/02/01 07:04:38;;;;;;;10.50;2.63;;;3.20;90.60;;;;;;4992483;28;20177;-91
2022/02/01 07:07:06;;;;;;;21.07;3.43;;;3.20;90.50;;;;;;4989086;28;20270;-91
2022/02/01 07:09:33;;;;;;;19.20;3.97;;;3.20;90.70;;;;;;4987465;28;20189;-91
2022/02/01 07:11:59;;;;;;;14.53;3.57;;;3.20;90.80;;;;;;4987202;28;20201;-91
2022/02/01 07:14:25;;;;;;;20.63;4.03;;;3.30;90.90;;;;;;4990659;28;20207;-92
2022/02/01 07:16:53;;;;;;;13.47;2.97;;;3.30;90.90;;;;;;4992174;28;20205;-92
2022/02/01 07:19:19;;;;;;;19.83;3.87;;;3.20;91.10;;;;;;5010694;28;20224;-92
2022/02/01 07:21:45;;;;;;;16.43;4.90;;;3.20;91.30;;;;;;4992828;28;20249;-91
2022/02/01 07:24:15;;;;;;;20.30;3.37;;;3.30;91.30;;;;;;5006305;28;20209;-92
2022/02/01 07:26:51;;;;;;;17.13;5.00;;;3.30;91.30;;;;;;4990771;28;20209;-91
2022/02/01 07:29:17;;;;;;;22.40;5.07;;;3.30;91.30;;;;;;4991226;28;20263;-92
2022/02/01 07:31:42;;;;;;;10.37;3.30;;;3.30;91.40;;;;;;5009262;28;20566;-92
2022/02/01 07:34:08;;;;;;;16.37;4.10;;;3.20;91.50;;;;;;4993532;28;20193;-91
2022/02/01 07:36:35;;;;;;;22.43;4.03;;;3.20;91.70;;;;;;4994028;28;20193;-91
2022/02/01 07:39:00;;;;;;;15.10;3.67;;;3.20;91.80;;;;;;4987462;28;20638;-92
2022/02/01 07:41:26;;;;;;;18.17;4.00;;;3.20;91.90;;;;;;4982110;28;20239;-92
2022/02/01 07:43:55;;;;;;;19.20;4.37;;;3.20;92.10;;;;;;4987099;28;20171;-92
2022/02/01 07:46:21;;;;;;;17.13;4.10;;;3.20;92.10;;;;;;4997807;28;20208;-91
2022/02/01 07:48:46;;;;;;;12.83;3.07;;;3.20;92.20;;;;;;5002945;28;20178;-92
2022/02/01 07:51:12;;;;;;;18.57;3.50;;;3.30;92.10;;;;;;4986378;28;20269;-91
2022/02/01 07:53:38;;;;;;;15.47;3.43;;;3.30;92.00;;;;;;4985096;28;20182;-92
2022/02/01 07:56:03;;;;;;;9.10;3.17;;;3.30;91.90;;;;;;5000262;28;20840;-90
2022/02/01 07:58:29;;;;;;;9.50;3.03;;;3.30;92.00;;;;;;5000246;28;20257;-91
2022/02/01 08:00:55;;;;;;;7.13;2.13;;;3.30;91.90;;;;;;4982647;28;20692;-92
2022/02/01 08:03:32;;;;;;;8.57;2.73;;;3.30;91.90;;;;;;4986731;28;20177;-91
2022/02/01 08:06:13;;;;;;;12.90;2.67;;;3.30;91.90;;;;;;4994994;28;20180;-92
2022/02/01 08:08:39;;;;;;;12.70;2.57;;;3.30;91.70;;;;;;5005408;28;20581;-92
2022/02/01 08:11:09;;;;;;;12.53;2.87;;;3.40;91.70;;;;;;4995392;28;20202;-92
2022/02/01 08:16:39;;;;;;;13.97;2.97;;;3.50;91.60;;;;;;5010473;28;20197;-92
2022/02/01 08:19:21;;;;;;;7.07;2.57;;;3.50;91.50;;;;;;4992699;28;20194;-92
2022/02/01 08:21:47;;;;;;;11.17;3.50;;;3.50;91.50;;;;;;4992160;28;20224;-91
2022/02/01 08:24:14;;;;;;;11.70;3.87;;;3.60;91.40;;;;;;4993228;28;20180;-92
2022/02/01 08:26:39;;;;;;;10.07;3.53;;;3.60;91.40;;;;;;5008534;28;20173;-92
2022/02/01 08:29:08;;;;;;;10.40;3.23;;;3.60;91.40;;;;;;4991306;28;20188;-91
2022/02/01 08:31:33;;;;;;;8.93;3.43;;;3.60;91.40;;;;;;4990889;28;20213;-92
2022/02/01 08:33:59;;;;;;;16.53;3.80;;;3.70;91.30;;;;;;4992492;28;20178;-91
2022/02/01 08:36:25;;;;;;;18.93;3.93;;;3.70;91.30;;;;;;5010470;28;20194;-91
2022/02/01 08:38:50;;;;;;;16.40;3.40;;;3.80;91.20;;;;;;4991560;28;20190;-91
2022/02/01 08:41:20;;;;;;;11.63;4.17;;;3.80;90.90;;;;;;4991738;28;20198;-92
2022/02/01 08:43:46;;;;;;;11.80;3.07;;;3.80;90.80;;;;;;5009853;28;20237;-92
2022/02/01 08:46:12;;;;;;;12.63;2.83;;;3.90;90.70;;;;;;4991213;28;20212;-92
2022/02/01 08:48:38;;;;;;;12.17;3.40;;;3.90;90.80;;;;;;4990076;28;20201;-92
2022/02/01 08:51:09;;;;;;;8.00;3.43;;;3.90;90.70;;;;;;4992280;28;20261;-92
2022/02/01 08:53:48;;;;;;;10.97;3.03;;;3.90;90.50;;;;;;5010949;28;20261;-92
2022/02/01 08:59:02;;;;;;;11.13;3.80;;;3.90;90.50;;;;;;5008663;28;20176;-92
2022/02/01 09:01:27;;;;;;;15.67;3.67;;;3.90;90.50;;;;;;5006819;28;20284;-89
2022/02/01 09:03:53;;;;;;;8.33;3.27;;;4.00;90.60;;;;;;4995580;28;20209;-89
2022/02/01 09:06:22;;;;;;;14.47;4.60;;;4.00;90.30;;;;;;4994154;28;20185;-88
2022/02/01 09:08:48;;;;;;;6.93;3.33;;;4.00;90.00;;;;;;4977829;28;20591;-89
2022/02/01 09:11:14;;;;;;;20.67;4.43;;;4.00;90.00;;;;;;4995152;28;20327;-89
2022/02/01 09:13:40;;;;;;;17.10;4.33;;;4.00;89.60;;;;;;4995733;28;20234;-89
2022/02/01 09:16:06;;;;;;;20.33;3.57;;;4.10;89.40;;;;;;4995335;28;20706;-89
2022/02/01 09:18:31;;;;;;;8.50;3.13;;;4.10;89.20;;;;;;4978768;28;20174;-89
2022/02/01 09:20:58;;;;;;;7.27;3.37;;;4.10;89.30;;;;;;4995796;28;20754;-88
2022/02/01 09:23:23;;;;;;;10.07;2.90;;;4.10;89.50;;;;;;4995694;28;20197;-88
2022/02/01 09:25:49;;;;;;;9.73;3.30;;;4.10;89.80;;;;;;4995613;28;20640;-88
2022/02/01 09:28:14;;;;;;;9.33;2.83;;;4.10;89.70;;;;;;4978445;28;20228;-88
2022/02/01 09:30:40;;;;;;;12.17;3.50;;;4.10;89.60;;;;;;4995062;28;20276;-90
2022/02/01 09:33:06;;;;;;;8.77;2.70;;;4.10;89.90;;;;;;4977795;28;20555;-90
2022/02/01 09:35:31;;;;;;;4.77;2.77;;;4.10;90.10;;;;;;4994257;28;20212;-89
2022/02/01 09:37:57;;;;;;;12.67;4.17;;;4.00;90.40;;;;;;4977474;28;20166;-89
2022/02/01 09:40:23;;;;;;;16.20;4.00;;;4.00;90.70;;;;;;4977723;28;20227;-89
2022/02/01 09:42:48;;;;;;;9.10;3.70;;;4.00;91.10;;;;;;4993635;28;20185;-90
2022/02/01 09:45:14;;;;;;;8.87;3.13;;;4.00;91.40;;;;;;4977798;28;20389;-89
2022/02/01 09:47:44;;;;;;;8.80;3.17;;;3.90;91.50;;;;;;4994629;28;20178;-89
2022/02/01 09:50:18;;;;;;;8.53;3.73;;;3.90;91.90;;;;;;4994995;28;20371;-88
2022/02/01 09:52:44;;;;;;;7.57;3.40;;;3.80;92.50;;;;;;4977090;28;20178;-89
2022/02/01 09:55:13;;;;;;;9.00;3.20;;;3.80;92.70;;;;;;4976954;28;20178;-89
2022/02/01 09:57:43;;;;;;;8.63;2.60;;;3.80;92.90;;;;;;4977101;28;20180;-87
2022/02/01 10:00:14;;;;;;;11.40;3.30;;;3.90;93.00;;;;;;4977220;28;20277;-87
2022/02/01 10:02:44;;;;;;;9.23;3.00;;;3.90;93.00;;;;;;4976878;28;20208;-88
2022/02/01 10:05:11;;;;;;;12.50;3.97;;;3.90;93.10;;;;;;4976927;28;20181;-88
2022/02/01 10:07:54;;;;;;;9.40;3.37;;;3.90;93.20;;;;;;4977441;28;20225;-89
2022/02/01 10:10:21;;;;;;;8.97;3.10;;;3.90;93.40;;;;;;4994208;28;20285;-88
2022/02/01 10:13:16;;;;;;;11.10;3.80;;;3.90;93.50;;;;;;4976900;28;20236;-89
2022/02/01 10:16:16;;;;;;;5.10;2.93;;;3.90;93.70;;;;;;4994232;28;20189;-88
2022/02/01 10:18:48;;;;;;;4.40;2.73;;;3.90;93.90;;;;;;4977369;28;20165;-88
2022/02/01 10:21:15;;;;;;;10.30;2.87;;;3.80;93.90;;;;;;4994370;28;20194;-89
2022/02/01 10:23:42;;;;;;;12.00;4.53;;;3.80;94.00;;;;;;4994549;28;20166;-90
2022/02/01 10:26:20;;;;;;;9.07;3.77;;;3.90;94.20;;;;;;4994556;28;20177;-89
2022/02/01 10:31:35;;;;;;;5.63;3.00;;;4.00;94.20;;;;;;4994414;28;20220;-90
2022/02/01 10:34:59;;;;;;;4.27;2.53;;;4.00;94.20;;;;;;4993094;28;20228;-90
2022/02/01 10:37:03;;;;;;;3.63;2.57;;;4.00;94.30;;;;;;4990135;28;20241;-91
2022/02/01 10:39:33;;;;;;;3.50;2.40;;;4.00;94.40;;;;;;4994238;28;20174;-90
2022/02/01 10:42:05;;;;;;;9.10;3.83;;;4.00;94.50;;;;;;4993955;28;20244;-89
2022/02/01 10:44:48;;;;;;;4.27;2.63;;;4.10;94.50;;;;;;4976684;28;20166;-92
2022/02/01 10:47:30;;;;;;;3.03;2.60;;;4.10;94.60;;;;;;4994586;28;20174;-90
2022/02/01 10:50:06;;;;;;;5.47;3.10;;;4.10;94.50;;;;;;4976809;28;20172;-90
2022/02/01 10:52:47;;;;;;;10.93;3.40;;;4.20;94.50;;;;;;4976770;28;20257;-91
2022/02/01 10:55:14;;;;;;;5.43;2.83;;;4.20;94.50;;;;;;4993957;28;20209;-90
2022/02/01 10:57:40;;;;;;;6.37;4.17;;;4.20;94.50;;;;;;4994029;28;20681;-90
2022/02/01 11:00:08;;;;;;;3.63;2.67;;;4.30;94.40;;;;;;4992695;28;20241;-90
2022/02/01 11:02:42;;;;;;;5.37;3.20;;;4.30;94.40;;;;;;4993971;28;20171;-90
2022/02/01 11:05:15;;;;;;;4.27;3.73;;;4.30;94.50;;;;;;4994319;28;20155;-91
2022/02/01 11:07:41;;;;;;;5.50;2.80;;;4.40;94.50;;;;;;4993939;28;20636;-90
2022/02/01 11:10:11;;;;;;;5.10;3.43;;;4.40;94.50;;;;;;4994571;28;20194;-89
2022/02/01 11:12:39;;;;;;;6.17;3.47;;;4.40;94.50;;;;;;4993918;28;20212;-91
2022/02/01 11:15:16;;;;;;;4.97;3.27;;;4.50;94.50;;;;;;4994149;28;20171;-90
2022/02/01 11:17:43;;;;;;;2.93;2.57;;;4.50;94.60;;;;;;4976450;28;20162;-90
2022/02/01 11:20:10;;;;;;;3.03;2.47;;;4.60;94.50;;;;;;4992753;28;20217;-89
2022/02/01 11:22:38;;;;;;;2.63;2.43;;;4.60;94.40;;;;;;4979864;28;20173;-89
2022/02/01 11:25:19;;;;;;;4.50;2.80;;;4.70;94.30;;;;;;4980058;28;20245;-89
2022/02/01 11:28:11;;;;;;;5.73;3.53;;;4.70;94.30;;;;;;4996525;28;20169;-90
2022/02/01 11:30:43;;;;;;;4.33;3.57;;;4.80;94.30;;;;;;4997089;28;20227;-89
2022/02/01 11:33:11;;;;;;;5.30;3.40;;;4.80;94.30;;;;;;4979702;28;20265;-89
2022/02/01 11:35:38;;;;;;;6.10;3.63;;;4.80;94.30;;;;;;4979389;28;20284;-90
2022/02/01 11:38:20;;;;;;;7.57;3.80;;;4.80;94.30;;;;;;4979664;28;20269;-89
2022/02/01 11:40:49;;;;;;;3.93;3.20;;;4.90;94.30;;;;;;4997353;28;20191;-89
2022/02/01 11:43:58;;;;;;;5.67;3.73;;;4.90;94.30;;;;;;4997230;28;20174;-89
2022/02/01 11:47:04;;;;;;;4.77;3.27;;;5.00;94.30;;;;;;4921140;29;20200;-90
2022/02/01 11:49:30;;;;;;;3.63;3.30;;;5.10;94.30;;;;;;4958408;28;20200;-90
2022/02/01 11:52:26;;;;;;;5.97;3.67;;;5.10;94.20;;;;;;4979814;28;20572;-90
2022/02/01 11:55:13;;;;;;;7.63;3.50;;;5.20;94.20;;;;;;4928314;28;20198;-89
2022/02/01 11:57:49;;;;;;;2.17;1.70;;;5.20;94.30;;;;;;4979629;28;20207;-90
2022/02/01 12:00:17;;;;;;;3.57;2.90;;;5.20;94.30;;;;;;4997043;28;20219;-88
2022/02/01 12:02:48;;;;;;;3.07;2.67;;;5.20;94.40;;;;;;4996704;28;20195;-88
2022/02/01 12:05:35;;;;;;;2.03;1.93;;;5.30;94.40;;;;;;4996632;28;20181;-89
2022/02/01 12:08:07;;;;;;;4.57;3.50;;;5.30;94.50;;;;;;4979361;28;20179;-88
2022/02/01 12:10:45;;;;;;;3.30;3.00;;;5.30;94.50;;;;;;4996624;28;20188;-90
2022/02/01 12:13:12;;;;;;;3.37;3.07;;;5.40;94.60;;;;;;4996572;28;20165;-90
2022/02/01 12:15:41;;;;;;;2.50;2.30;;;5.50;94.60;;;;;;4979872;28;20239;-90
2022/02/01 12:18:37;;;;;;;2.77;2.57;;;5.50;94.70;;;;;;4979750;28;20162;-88
2022/02/01 12:21:13;;;;;;;2.47;1.93;;;5.60;94.70;;;;;;4996561;28;20282;-90
2022/02/01 12:23:49;;;;;;;3.85;3.42;;;5.70;94.70;;;;;;4994110;28;20420;-89
2022/02/01 12:26:28;;;;;;;7.83;3.50;;;5.70;94.60;;;;;;4996187;28;20196;-89
2022/02/01 12:28:56;;;;;;;2.70;2.50;;;5.70;94.50;;;;;;4995647;28;20589;-89
2022/02/01 12:31:26;;;;;;;3.33;3.03;;;5.80;94.60;;;;;;5046672;22;20223;-89
2022/02/01 12:33:55;;;;;;;3.43;2.17;;;5.80;94.60;;;;;;5016673;28;20203;-90
2022/02/01 12:36:33;;;;;;;3.27;2.97;;;5.90;94.50;;;;;;5035340;28;20614;-90
2022/02/01 12:39:22;;;;;;;3.70;3.10;;;6.00;94.50;;;;;;5035720;28;20183;-89
2022/02/01 12:42:00;;;;;;;5.83;2.90;;;6.00;94.40;;;;;;5034588;28;20224;-89
2022/02/01 12:46:59;;;;;;;9.30;3.43;;;6.20;94.40;;;;;;5055720;28;20179;-90
2022/02/01 12:49:40;;;;;;;2.37;1.90;;;6.30;94.40;;;;;;5055338;28;20225;-91
2022/02/01 12:52:23;;;;;;;7.93;3.10;;;6.50;94.30;;;;;;5037231;28;20201;-91
2022/02/01 12:55:11;;;;;;;11.73;3.07;;;6.60;94.00;;;;;;5055435;28;20251;-90
2022/02/01 12:57:37;;;;;;;12.00;3.13;;;6.60;94.00;;;;;;5055107;28;20238;-90
2022/02/01 13:00:25;;;;;;;10.60;3.13;;;6.60;93.90;;;;;;5054945;28;20625;-90
2022/02/01 13:03:03;;;;;;;11.30;3.20;;;6.70;93.90;;;;;;5037932;28;20179;-90
2022/02/01 13:05:32;;;;;;;13.80;3.67;;;6.70;93.80;;;;;;5037991;28;20176;-90
2022/02/01 13:08:22;;;;;;;8.93;3.00;;;6.80;93.80;;;;;;5036991;28;20180;-90
2022/02/01 13:21:08;;;;;;;26.47;4.83;;;7.10;93.80;;;;;;5054630;28;20657;-90
2022/02/01 13:23:56;;;;;;;19.17;4.37;;;7.20;93.60;;;;;;5036895;28;20192;-90
2022/02/01 13:26:30;;;;;;;19.13;4.40;;;7.20;93.30;;;;;;5037450;28;20172;-91
2022/02/01 13:29:43;;;;;;;;;;;;;;;;;;;;;
2022/02/01 13:32:20;;;;;;;21.97;4.00;;;7.30;92.60;;;;;;5035370;22;20232;-90
2022/02/01 13:38:17;;;;;;;26.07;5.67;;;7.30;92.40;;;;;;5007605;28;20222;-88
2022/02/01 13:40:43;;;;;;;31.63;5.40;;;7.30;92.50;;;;;;5041406;28;20291;-90
2022/02/01 13:43:24;;;;;;;28.40;5.43;;;7.20;92.90;;;;;;5054443;28;20207;-91
2022/02/01 13:45:51;;;;;;;23.27;4.93;;;7.20;92.80;;;;;;5054887;28;20673;-90
2022/02/01 13:48:37;;;;;;;38.43;6.07;;;7.20;92.70;;;;;;5036709;28;20187;-90
2022/02/01 13:51:43;;;;;;;25.90;5.03;;;7.20;92.70;;;;;;5033339;28;20212;-90
2022/02/01 13:54:09;;;;;;;32.93;5.97;;;7.20;92.70;;;;;;4974401;28;20198;-90
2022/02/01 13:56:36;;;;;;;33.27;6.67;;;7.20;92.60;;;;;;5036596;28;20203;-90
2022/02/01 13:59:11;;;;;;;29.67;5.83;;;7.20;92.40;;;;;;5053694;28;20716;-90
2022/02/01 14:01:42;;;;;;;33.47;6.90;;;7.20;92.40;;;;;;5053697;28;20215;-90
2022/02/01 14:04:25;;;;;;;23.43;5.33;;;7.20;92.40;;;;;;5036047;28;20187;-90
2022/02/01 14:07:09;;;;;;;38.73;6.23;;;7.20;92.40;;;;;;5054251;28;20638;-90
2022/02/01 14:28:49;;;;;;;28.33;4.83;;;7.50;90.20;;;;;;5053669;28;20172;-90
2022/02/01 14:34:22;;;;;;;28.20;4.57;;;7.50;90.00;;;;;;5054133;28;20171;-90
2022/02/01 14:36:50;;;;;;;31.50;4.70;;;7.50;89.70;;;;;;5054292;28;20179;-90
2022/02/01 14:44:46;;;;;;;23.53;4.83;;;7.50;89.70;;;;;;5054034;28;20679;-89
2022/02/01 14:47:16;;;;;;;26.10;5.40;;;7.50;89.50;;;;;;5053272;28;20172;-90
2022/02/01 14:49:42;;;;;;;17.17;4.30;;;7.50;89.10;;;;;;5036467;28;20533;-90
2022/02/01 14:52:08;;;;;;;17.00;4.20;;;7.60;88.60;;;;;;5054068;28;20347;-90
2022/02/01 14:54:54;;;;;;;21.93;4.70;;;7.60;88.30;;;;;;5053744;28;20175;-89
2022/02/01 15:13:27;;;;;;;19.17;3.97;;;7.20;87.90;;;;;;5057976;28;20163;-91
2022/02/01 15:15:55;;;;;;;14.33;3.83;;;7.20;88.00;;;;;;5039842;28;20202;-91
2022/02/01 15:18:21;;;;;;;22.03;4.13;;;7.10;88.40;;;;;;5039214;28;20306;-92
2022/02/01 15:20:47;;;;;;;16.53;3.87;;;7.20;88.20;;;;;;5039611;28;20191;-91